Time;durP1;ratioP1;P1;durP2;ratioP2;P2;SDS_P1;SDS_P2;PMS_P1;PMS_P2;Temp;Humidity;BMP_temperature;BMP_pressure;BME280_temperature;BME280_humidity;BME280_pressure;Samples;Min_cycle;Max_cycle;Signal;HPM_P1;HPM_P2
2022/02/05 00:06:02;;;;;;;20.77;9.13;;;3.70;99.90;;;;;;12575351;28;20122;-82
2022/02/05 00:12:21;;;;;;;16.58;8.30;;;3.70;99.90;;;;;;12558558;28;20067;-84
2022/02/05 00:43:56;;;;;;;18.40;8.20;;;3.60;99.90;;;;;;12562020;28;20496;-83
2022/02/05 00:50:00;;;;;;;18.45;8.43;;;3.60;99.90;;;;;;12537859;28;20097;-84
2022/02/05 00:56:10;;;;;;;15.85;7.05;;;3.60;99.90;;;;;;12544754;28;20083;-84
2022/02/05 01:02:12;;;;;;;19.30;6.80;;;3.70;99.90;;;;;;12559508;28;20152;-85
2022/02/05 01:08:16;;;;;;;17.60;6.65;;;3.70;99.90;;;;;;12536523;28;20080;-84
2022/02/05 01:14:23;;;;;;;21.03;6.90;;;3.60;99.90;;;;;;12548370;28;20056;-81
2022/02/05 01:26:56;;;;;;;14.27;6.28;;;3.70;99.90;;;;;;12556298;28;20076;-85
2022/02/05 01:33:24;;;;;;;12.82;5.80;;;3.70;99.90;;;;;;12549281;28;20061;-84
2022/02/05 01:53:04;;;;;;;12.82;5.30;;;3.80;99.90;;;;;;12548317;28;20049;-83
2022/02/05 02:05:01;;;;;;;12.43;6.50;;;3.90;99.90;;;;;;12545093;28;20090;-84
2022/02/05 02:18:00;;;;;;;14.05;6.38;;;3.70;99.90;;;;;;12554849;28;20048;-84
2022/02/05 02:24:03;;;;;;;13.05;6.45;;;3.70;99.90;;;;;;12549526;28;20574;-82
2022/02/05 02:36:20;;;;;;;19.27;6.18;;;3.80;99.90;;;;;;12562391;28;20470;-83
2022/02/05 02:42:22;;;;;;;11.23;5.13;;;3.90;99.90;;;;;;12539054;28;20114;-84
2022/02/05 02:48:24;;;;;;;14.65;5.45;;;3.80;99.90;;;;;;12559756;28;20072;-84
2022/02/05 03:00:53;;;;;;;12.68;5.13;;;3.80;99.90;;;;;;12565647;28;20365;-83
2022/02/05 03:06:55;;;;;;;13.68;5.00;;;3.80;99.90;;;;;;12556718;28;20604;-83
2022/02/05 03:12:57;;;;;;;14.73;5.63;;;3.80;99.90;;;;;;12541261;28;20457;-83
2022/02/05 03:25:01;;;;;;;10.88;4.43;;;3.80;99.90;;;;;;12558162;28;20045;-84
2022/02/05 03:31:03;;;;;;;14.50;3.90;;;3.80;99.90;;;;;;12542544;28;20053;-85
2022/02/05 03:37:05;;;;;;;11.07;3.72;;;3.70;99.90;;;;;;12553272;28;20147;-82
2022/02/05 03:43:14;;;;;;;12.48;4.03;;;3.80;99.90;;;;;;12559940;28;20057;-85
2022/02/05 03:49:18;;;;;;;9.68;3.83;;;3.70;99.90;;;;;;12500991;28;1130410;-83
2022/02/05 03:55:20;;;;;;;12.70;4.50;;;3.60;99.90;;;;;;12546122;28;20140;-86
2022/02/05 04:01:21;;;;;;;14.13;4.22;;;3.60;99.90;;;;;;12564083;28;20074;-82
2022/02/05 04:07:26;;;;;;;10.55;4.28;;;3.50;99.90;;;;;;12555341;28;20143;-82
2022/02/05 04:19:48;;;;;;;16.23;4.53;;;3.50;99.90;;;;;;12578437;28;20163;-82
2022/02/05 04:25:50;;;;;;;14.35;4.30;;;3.60;99.90;;;;;;12556351;28;20145;-83
2022/02/05 04:31:52;;;;;;;9.93;4.72;;;3.60;99.90;;;;;;12538486;28;20183;-85
2022/02/05 04:37:56;;;;;;;12.27;5.20;;;3.60;99.90;;;;;;12547917;28;20764;-82
2022/02/05 04:51:03;;;;;;;15.30;6.45;;;3.40;99.90;;;;;;12475073;28;20662;-83
2022/02/05 05:15:29;;;;;;;18.93;6.73;;;3.30;99.90;;;;;;12499112;28;20072;-83
2022/02/05 05:21:31;;;;;;;16.95;5.97;;;3.30;99.90;;;;;;12512663;28;20152;-83
2022/02/05 05:27:33;;;;;;;13.40;5.60;;;3.30;99.90;;;;;;12502955;28;20092;-82
2022/02/05 05:33:35;;;;;;;14.02;5.47;;;3.10;99.90;;;;;;12503961;28;20060;-83
2022/02/05 05:39:39;;;;;;;13.85;5.82;;;3.10;99.90;;;;;;12501663;28;20053;-82
2022/02/05 05:46:13;;;;;;;10.27;5.50;;;3.10;99.90;;;;;;12504655;28;20628;-83
2022/02/05 05:52:12;;;;;;;9.18;4.88;;;3.10;99.90;;;;;;12554657;28;20048;-83
2022/02/05 05:58:15;;;;;;;11.23;4.63;;;3.10;99.90;;;;;;12533811;28;20083;-81
2022/02/05 06:04:17;;;;;;;14.50;6.53;;;3.10;99.90;;;;;;12529729;28;20072;-81
2022/02/05 06:10:18;;;;;;;13.30;5.82;;;3.20;99.90;;;;;;12537658;28;20544;-84
2022/02/05 06:16:28;;;;;;;13.73;5.18;;;3.20;99.90;;;;;;12544103;23;20060;-89
2022/02/05 06:22:30;;;;;;;14.82;4.82;;;3.20;99.90;;;;;;12529085;28;20045;-88
2022/02/05 06:28:32;;;;;;;17.25;5.28;;;3.30;99.90;;;;;;12531001;28;20121;-90
2022/02/05 06:34:36;;;;;;;14.93;4.93;;;3.20;99.90;;;;;;12522921;28;20041;-91
2022/02/05 06:40:46;;;;;;;19.02;5.65;;;3.20;99.90;;;;;;12539912;28;20052;-91
2022/02/05 06:46:58;;;;;;;15.85;5.00;;;3.20;99.90;;;;;;12539498;28;20048;-90
2022/02/05 06:53:05;;;;;;;15.20;4.88;;;3.10;99.90;;;;;;12508664;28;20098;-90
2022/02/05 06:59:09;;;;;;;13.52;4.97;;;3.00;99.90;;;;;;12503608;28;20068;-90
2022/02/05 07:05:11;;;;;;;13.02;4.72;;;3.10;99.90;;;;;;12483293;28;20097;-90
2022/02/05 07:11:14;;;;;;;12.77;5.05;;;3.00;99.90;;;;;;12490862;28;20057;-91
2022/02/05 07:17:25;;;;;;;13.73;5.22;;;2.90;99.90;;;;;;12501698;28;20053;-89
2022/02/05 07:29:36;;;;;;;15.38;4.97;;;2.90;99.90;;;;;;12524030;28;20076;-92
2022/02/05 07:35:38;;;;;;;14.75;5.20;;;3.00;99.90;;;;;;12507928;28;20148;-91
2022/02/05 07:41:41;;;;;;;15.27;4.70;;;3.00;99.90;;;;;;12503023;28;20045;-89
2022/02/05 07:47:44;;;;;;;17.63;6.37;;;3.10;99.90;;;;;;12506956;28;20144;-90
2022/02/05 07:53:47;;;;;;;20.08;5.50;;;3.30;99.90;;;;;;12493709;28;20860;-91
2022/02/05 07:59:48;;;;;;;19.00;4.68;;;3.20;99.90;;;;;;12507993;28;20483;-91
2022/02/05 08:05:50;;;;;;;14.07;4.97;;;3.20;99.90;;;;;;12509634;28;20049;-91
2022/02/05 08:17:56;;;;;;;15.07;5.63;;;3.50;99.90;;;;;;12524194;28;20583;-90
2022/02/05 08:24:04;;;;;;;17.13;4.60;;;3.50;99.90;;;;;;12494685;28;20901;-89
2022/02/05 08:30:12;;;;;;;16.98;5.63;;;3.60;99.90;;;;;;12508862;28;20056;-91
2022/02/05 08:36:18;;;;;;;12.38;4.68;;;3.70;99.90;;;;;;12487529;28;20045;-90
2022/02/05 08:42:25;;;;;;;13.30;4.50;;;3.80;99.90;;;;;;12479433;28;20405;-90
2022/02/05 08:48:29;;;;;;;15.20;4.78;;;3.90;99.90;;;;;;12507947;28;20108;-90
2022/02/05 08:54:32;;;;;;;16.00;4.97;;;4.00;99.90;;;;;;12504508;28;20121;-90
2022/02/05 09:00:43;;;;;;;16.98;5.00;;;3.90;99.90;;;;;;12495520;28;20052;-88
2022/02/05 09:06:48;;;;;;;14.23;5.63;;;3.80;99.90;;;;;;12499417;28;20413;-91
2022/02/05 09:13:24;;;;;;;12.50;6.05;;;3.90;99.90;;;;;;12499992;28;20070;-91
2022/02/05 09:19:33;;;;;;;18.20;4.70;;;4.00;99.90;;;;;;12528110;28;20057;-92
2022/02/05 09:25:37;;;;;;;10.07;4.10;;;4.10;99.90;;;;;;12536490;28;20041;-89
2022/02/05 09:31:40;;;;;;;14.85;4.70;;;4.20;99.90;;;;;;12508658;28;20725;-91
2022/02/05 09:37:42;;;;;;;15.07;4.55;;;4.20;99.90;;;;;;12494413;28;20052;-90
2022/02/05 09:43:47;;;;;;;17.40;4.28;;;4.30;99.90;;;;;;12503047;28;20049;-90
2022/02/05 09:49:51;;;;;;;16.67;5.43;;;4.30;99.90;;;;;;12497488;28;20048;-91
2022/02/05 09:55:53;;;;;;;13.27;3.80;;;4.40;99.90;;;;;;12505237;28;20455;-90
2022/02/05 10:02:19;;;;;;;13.70;4.88;;;4.40;99.90;;;;;;12505628;28;20095;-91
2022/02/05 10:08:26;;;;;;;19.73;5.13;;;4.50;99.90;;;;;;12472478;28;20452;-89
2022/02/05 10:14:30;;;;;;;14.07;4.18;;;4.70;99.90;;;;;;12502116;28;20442;-92
2022/02/05 10:20:32;;;;;;;15.23;4.10;;;4.90;99.90;;;;;;12440464;28;20053;-90
2022/02/05 10:26:43;;;;;;;15.27;4.90;;;4.80;99.90;;;;;;12426218;28;20263;-88
2022/02/05 10:32:49;;;;;;;16.45;4.50;;;4.80;99.90;;;;;;12406289;28;20110;-90
2022/02/05 10:39:52;;;;;;;10.30;4.18;;;4.80;99.90;;;;;;12423222;28;20066;-90
2022/02/05 10:45:54;;;;;;;14.93;3.75;;;4.80;99.90;;;;;;12415396;28;20127;-91
2022/02/05 10:52:05;;;;;;;12.52;3.67;;;4.90;99.90;;;;;;12418951;28;20098;-89
2022/02/05 10:58:13;;;;;;;9.63;3.72;;;5.00;99.90;;;;;;12434294;28;20045;-91
2022/02/05 11:17:07;;;;;;;12.50;3.10;;;5.40;99.90;;;;;;12429904;28;20049;-88
2022/02/05 11:23:12;;;;;;;12.23;3.20;;;5.60;99.90;;;;;;12500003;28;20074;-91
2022/02/05 11:29:29;;;;;;;13.05;2.67;;;5.60;99.90;;;;;;12495091;28;20140;-91
2022/02/05 11:42:25;;;;;;;9.68;2.60;;;5.50;99.90;;;;;;12525008;28;20044;-90
2022/02/05 11:48:44;;;;;;;17.98;3.65;;;5.40;99.90;;;;;;12495160;28;20073;-89
2022/02/05 11:55:08;;;;;;;15.98;3.28;;;5.50;99.90;;;;;;12508046;28;20045;-91
2022/02/05 12:01:10;;;;;;;12.43;2.40;;;5.60;99.90;;;;;;12500560;28;20053;-91
2022/02/05 12:07:13;;;;;;;11.43;2.45;;;5.50;99.90;;;;;;12500020;28;20060;-90
2022/02/05 12:13:37;;;;;;;12.15;3.65;;;5.40;99.90;;;;;;12521772;28;20044;-91
2022/02/05 12:20:21;;;;;;;10.65;2.80;;;5.30;99.90;;;;;;12517738;28;20059;-91
2022/02/05 12:26:30;;;;;;;10.38;2.40;;;5.30;99.90;;;;;;12454715;28;20082;-91
2022/02/05 12:32:32;;;;;;;15.07;2.67;;;5.30;99.90;;;;;;12488012;28;20045;-90
2022/02/05 12:38:42;;;;;;;14.10;3.13;;;5.50;99.90;;;;;;12498103;28;20052;-89
2022/02/05 12:44:46;;;;;;;12.30;2.95;;;5.70;99.90;;;;;;12513718;28;20057;-90
2022/02/05 12:50:49;;;;;;;9.80;2.40;;;5.60;99.90;;;;;;12510288;28;20045;-91
2022/02/05 12:56:53;;;;;;;9.68;2.20;;;5.60;99.90;;;;;;12518360;28;20045;-90
2022/02/05 13:02:55;;;;;;;9.40;2.38;;;5.50;99.90;;;;;;12509704;28;20072;-91
2022/02/05 13:08:57;;;;;;;9.32;2.58;;;5.50;99.90;;;;;;12514762;28;20325;-91
2022/02/05 13:15:26;;;;;;;8.77;2.30;;;5.40;99.90;;;;;;12504748;28;20497;-91
2022/02/05 13:28:28;;;;;;;9.40;2.17;;;5.30;99.90;;;;;;12514785;28;20119;-91
2022/02/05 13:34:28;;;;;;;7.28;2.40;;;5.20;99.90;;;;;;12517256;28;20050;-92
2022/02/05 13:40:34;;;;;;;6.20;1.92;;;5.30;99.90;;;;;;12493659;28;20074;-88
2022/02/05 13:46:37;;;;;;;11.95;2.28;;;5.50;99.90;;;;;;12504136;28;20095;-90
2022/02/05 13:52:41;;;;;;;10.57;1.83;;;5.50;99.90;;;;;;12481249;28;20090;-90
2022/02/05 13:58:54;;;;;;;8.77;2.58;;;5.50;99.90;;;;;;12515588;28;20048;-90
2022/02/05 14:05:12;;;;;;;5.72;1.70;;;5.50;99.90;;;;;;12477343;28;20049;-90
2022/02/05 14:11:31;;;;;;;8.73;1.88;;;5.40;99.90;;;;;;12488229;28;20041;-92
2022/02/05 14:17:34;;;;;;;10.83;1.93;;;5.40;99.90;;;;;;12475664;28;20064;-89
2022/02/05 14:23:51;;;;;;;9.13;1.65;;;5.50;99.90;;;;;;12507977;28;20314;-93
2022/02/05 14:29:58;;;;;;;7.65;1.55;;;5.70;99.90;;;;;;12501659;28;20060;-91
2022/02/05 14:36:17;;;;;;;5.35;1.70;;;5.70;99.90;;;;;;12506022;28;20443;-92
2022/02/05 14:42:24;;;;;;;7.88;1.88;;;5.70;99.90;;;;;;12505124;28;20420;-90
2022/02/05 14:48:26;;;;;;;4.67;1.43;;;5.70;99.90;;;;;;12514380;28;20048;-92
2022/02/05 14:54:31;;;;;;;7.90;1.80;;;5.80;99.90;;;;;;12511271;28;20045;-91
2022/02/05 15:00:33;;;;;;;6.28;1.75;;;5.60;99.90;;;;;;12523375;28;20516;-89
2022/02/05 15:06:38;;;;;;;7.28;1.80;;;5.60;99.90;;;;;;12513517;28;20064;-92
2022/02/05 15:12:41;;;;;;;7.45;1.77;;;5.50;99.90;;;;;;12515960;28;20052;-89
2022/02/05 15:18:52;;;;;;;6.40;1.70;;;5.50;99.90;;;;;;12514055;28;20063;-90
2022/02/05 15:24:54;;;;;;;7.47;1.77;;;5.40;99.90;;;;;;12498843;28;20044;-91
2022/02/05 15:30:57;;;;;;;6.28;1.88;;;5.40;99.90;;;;;;12510628;28;20368;-91
2022/02/05 15:37:07;;;;;;;11.20;2.63;;;5.30;99.90;;;;;;12516318;28;20404;-89
2022/02/05 15:43:40;;;;;;;7.03;2.20;;;5.20;99.90;;;;;;12504231;28;20095;-92
2022/02/05 15:49:44;;;;;;;8.57;2.42;;;5.20;99.90;;;;;;12511055;28;20422;-89
2022/02/05 15:55:47;;;;;;;10.10;2.80;;;5.20;99.90;;;;;;12508585;28;20071;-91
2022/02/05 16:01:52;;;;;;;8.93;2.40;;;5.20;99.90;;;;;;12493275;28;20041;-91
2022/02/05 16:07:57;;;;;;;9.32;2.10;;;5.20;99.90;;;;;;12517278;28;20521;-90
2022/02/05 16:14:01;;;;;;;8.05;2.00;;;5.20;99.90;;;;;;12527317;28;20045;-92
2022/02/05 16:20:08;;;;;;;9.63;2.40;;;5.10;99.90;;;;;;12525232;28;20057;-88
2022/02/05 16:26:11;;;;;;;8.50;2.33;;;5.10;99.90;;;;;;12508041;28;20048;-91
2022/02/05 16:32:13;;;;;;;9.90;2.00;;;5.10;99.90;;;;;;12493804;28;20048;-91
2022/02/05 16:38:19;;;;;;;9.40;2.28;;;5.00;99.90;;;;;;12506853;28;20084;-91
2022/02/05 16:44:25;;;;;;;8.15;2.40;;;5.00;99.90;;;;;;12527542;28;20135;-91
2022/02/05 16:50:28;;;;;;;8.95;2.15;;;5.10;99.90;;;;;;12509625;28;20053;-90
2022/02/05 16:56:34;;;;;;;6.80;2.23;;;5.10;99.90;;;;;;12486449;28;20044;-91
2022/02/05 17:02:36;;;;;;;6.72;2.00;;;5.10;99.90;;;;;;12480242;28;20057;-91
2022/02/05 17:08:38;;;;;;;9.90;2.28;;;5.20;99.90;;;;;;12511346;28;20081;-91
2022/02/05 17:14:43;;;;;;;6.95;1.90;;;5.10;99.90;;;;;;12513130;28;20040;-91
2022/02/05 17:20:53;;;;;;;7.80;1.60;;;5.10;99.90;;;;;;12506057;28;20053;-90
2022/02/05 17:26:56;;;;;;;11.73;2.30;;;5.10;99.90;;;;;;12513794;28;20091;-89
2022/02/05 17:32:59;;;;;;;8.15;1.90;;;5.20;99.90;;;;;;12501121;28;20079;-90
2022/02/05 17:39:05;;;;;;;4.55;1.60;;;5.10;99.90;;;;;;12508886;28;20040;-88
2022/02/05 17:45:07;;;;;;;7.57;1.55;;;5.20;99.90;;;;;;12503855;28;20072;-91
2022/02/05 17:51:10;;;;;;;5.97;1.73;;;5.20;99.90;;;;;;12487629;28;20603;-91
2022/02/05 17:57:16;;;;;;;8.23;2.25;;;5.20;99.90;;;;;;12502545;28;20053;-90
2022/02/05 18:03:21;;;;;;;11.35;2.00;;;5.20;99.90;;;;;;12489220;28;20047;-92
2022/02/05 18:15:31;;;;;;;15.60;2.92;;;5.40;99.90;;;;;;12486323;28;20044;-89
2022/02/05 18:21:33;;;;;;;7.53;1.92;;;5.40;99.90;;;;;;12484988;28;20148;-89
2022/02/05 18:27:35;;;;;;;9.63;1.90;;;5.40;99.90;;;;;;12481648;28;20048;-92
2022/02/05 18:33:37;;;;;;;5.93;1.80;;;5.40;99.90;;;;;;12488162;28;20055;-90
2022/02/05 18:39:46;;;;;;;6.53;1.80;;;5.40;99.90;;;;;;12490163;28;20498;-88
2022/02/05 18:45:52;;;;;;;10.77;2.03;;;5.40;99.90;;;;;;12520762;28;20033;-88
2022/02/05 18:51:55;;;;;;;8.70;1.80;;;5.40;99.90;;;;;;12497180;28;20044;-89
2022/02/05 18:57:58;;;;;;;9.73;1.95;;;5.50;99.90;;;;;;12499311;28;20186;-90
2022/02/05 19:22:48;;;;;;;;;;;5.50;99.90;;;;;;12523038;28;20691;-89
2022/02/05 19:28:50;;;;;;;8.40;1.70;;;5.60;99.90;;;;;;12499399;28;19936;-90
2022/02/05 19:34:52;;;;;;;9.18;1.45;;;5.70;99.90;;;;;;12499489;28;20093;-92
2022/02/05 19:40:57;;;;;;;6.78;1.67;;;5.60;99.90;;;;;;12503617;28;20048;-90
2022/02/05 19:47:04;;;;;;;5.20;1.30;;;5.70;99.90;;;;;;12511440;28;20080;-89
2022/02/05 19:53:07;;;;;;;8.50;1.75;;;5.70;99.90;;;;;;12518333;28;20029;-90
2022/02/05 19:59:13;;;;;;;7.47;1.90;;;5.80;99.90;;;;;;12533085;28;20047;-90
2022/02/05 20:05:33;;;;;;;10.20;1.83;;;5.80;99.90;;;;;;12535376;28;20049;-89
2022/02/05 20:11:36;;;;;;;7.32;1.60;;;5.90;99.90;;;;;;12530469;28;20045;-90
2022/02/05 20:17:38;;;;;;;10.60;1.83;;;5.90;99.90;;;;;;12526380;28;20064;-91
2022/02/05 20:23:40;;;;;;;9.20;1.95;;;5.90;99.90;;;;;;12512868;28;20049;-91
2022/02/05 20:29:43;;;;;;;6.00;1.90;;;5.90;99.90;;;;;;12538390;28;20056;-90
2022/02/05 20:35:50;;;;;;;11.95;1.70;;;5.80;99.90;;;;;;12566242;28;20036;-91
2022/02/05 20:41:56;;;;;;;9.48;1.77;;;5.80;99.90;;;;;;12533177;28;20041;-90
2022/02/05 20:47:58;;;;;;;15.18;2.33;;;5.70;99.90;;;;;;12530189;28;20136;-92
2022/02/05 20:54:15;;;;;;;10.18;2.35;;;5.60;99.90;;;;;;12521808;28;20807;-90
2022/02/05 21:00:19;;;;;;;9.63;2.10;;;5.60;99.90;;;;;;12523171;28;20064;-90
2022/02/05 21:06:22;;;;;;;9.13;2.20;;;5.50;99.90;;;;;;12507978;28;20167;-88
2022/02/05 21:12:24;;;;;;;10.85;2.13;;;5.60;99.90;;;;;;12539702;28;20608;-90
2022/02/05 21:18:27;;;;;;;12.38;2.15;;;5.50;99.90;;;;;;12523208;28;20532;-90
2022/02/05 21:24:34;;;;;;;6.50;2.30;;;5.40;99.90;;;;;;12508359;28;20045;-90
2022/02/05 21:30:46;;;;;;;8.65;2.10;;;5.40;99.90;;;;;;12507048;28;20044;-91
2022/02/05 21:36:50;;;;;;;9.40;2.40;;;5.30;99.90;;;;;;12521663;28;20079;-90
2022/02/05 21:42:52;;;;;;;8.15;2.50;;;5.30;99.90;;;;;;12499094;28;20053;-88
2022/02/05 21:48:54;;;;;;;10.05;2.65;;;5.30;99.90;;;;;;12496052;28;20098;-89
2022/02/05 21:55:08;;;;;;;11.13;2.30;;;5.20;99.90;;;;;;12519370;28;20580;-90
2022/02/05 22:01:10;;;;;;;11.38;2.42;;;5.20;99.90;;;;;;12498295;28;20147;-90
2022/02/05 22:07:14;;;;;;;11.50;2.38;;;5.10;99.90;;;;;;12504783;28;20079;-88
2022/02/05 22:13:19;;;;;;;6.15;2.28;;;5.20;99.90;;;;;;12513014;28;20053;-90
2022/02/05 22:19:21;;;;;;;7.10;2.10;;;5.10;99.90;;;;;;12497072;28;20048;-92
2022/02/05 22:25:23;;;;;;;9.50;3.42;;;5.10;99.90;;;;;;12503598;28;20041;-89
2022/02/05 22:31:25;;;;;;;7.85;2.40;;;5.20;99.90;;;;;;12497394;28;20096;-90
2022/02/05 22:37:31;;;;;;;9.35;2.75;;;5.20;99.90;;;;;;12516206;28;20049;-92
2022/02/05 22:43:33;;;;;;;6.97;2.60;;;5.10;99.90;;;;;;12501533;28;20045;-90
2022/02/05 22:49:37;;;;;;;14.15;2.97;;;5.10;99.90;;;;;;12508707;28;20060;-91
2022/02/05 22:55:41;;;;;;;7.20;2.60;;;5.10;99.90;;;;;;12502295;28;20061;-89
2022/02/05 23:01:44;;;;;;;7.57;2.88;;;5.10;99.90;;;;;;12498790;28;20451;-90
2022/02/05 23:07:46;;;;;;;5.80;2.28;;;5.10;99.90;;;;;;12516500;28;20052;-90
2022/02/05 23:40:15;;;;;;;8.73;2.80;;;5.10;99.90;;;;;;12526952;28;20051;-92
2022/02/05 23:45:41;;;;;;;9.75;3.20;;;5.00;99.90;;;;;;12528699;28;20079;-90
2022/02/05 23:51:43;;;;;;;13.90;3.60;;;5.00;99.90;;;;;;12508092;28;20045;-90
2022/02/05 23:57:45;;;;;;;11.07;3.78;;;5.00;99.90;;;;;;12512100;28;20165;-91
